Hovedside
METAR-TAF:

METAR-TAF

Lufthavner :

Malakula, Vanuatu

breddegrad: 16-27-26S, lengdegrad: 167-49-42E, høyde over havet: 2 m

METAR: fraværende

Tid: 12:43 (01:43 UTC)

Varsel

Denne rapporten ble laget for 2 timer og 43 minutter siden, klokken 23:00 UTC
Varsel gyldig fra 20. klokken 00 UTC til 20. klokken 24 UTC
Vind 10 kt fra Øst-sørøst
Sikt: 8000 m
Spredte skyer i en høyde av 1800 ft
Brutte skyer i en høyde av 3800 ft
Spredte skyer i en høyde av 1000 ft
Brutte skyer i en høyde av 1600 ft
Overskyet i en høyde av 3500 ft
kraftige regnbyger,

TAF: NVSL 192300Z 2000/2024 12010KT 9999 SCT018 BKN038 INTER 2000/2006 8000 +SHRA SCT010 BKN016 OVC035

Værobservasjoner og værvarsel for over 4000 flyplasser (METAR- og TAF-rapporter).

Tilgjengelige stasjoner er representert av de røde og gule prikkene på kartet.

Hold musepekeren over prikken for å se navnet på stasjonen.

Klikk så for å se værobservasjoner og -varsler.

For å forandre kartet kan du klikke på den grønne knappen med svart kryss for å zoome inn, på den grønne knappen med strek for å zoome ut, eller på de grønne pilene for å se tilstøtende kart.


METAR-TAF: